Portada
METAR-TAF:

METAR-TAF

Aeroports :

Mineral Point, Wisconsin, Estats Units d'Amèrica

Iowa County Airport

latitud: 42-53-07N, longitud: 090-13-55W, altitud: 359 m

Observació

L'informe es va fer fa 24 minuts, a les 01:55 UTC
Vent 11 kt del Sud/Sud-Est
Temperatura 3°C
Humitat 87%
Pressió 1009 hPa
Visibilitat: 16.1 km
Cel ennuvolat a una alçada de 8000 ft

METAR: KMRJ 190155Z AUTO 16011KT 10SM BKN080 03/01 A2981 RMK AO2

Hora: 20:19 (02:19 UTC)


TAF: manca

Observacions i pronòstics meteorològics de més de 4000 aeroports (METAR i TAF).

Les estacions disponibles són els punts grocs i vermells al mapa.

Posi el ratolí al punt desitjat per veure el nom de l'estació.

Feu clic per veure les observacions i els pronòstics meteorològics.

Per canviar el mapa: feu clic els botons verds amb una creu de color negre per apropar; al botó verd amb un guió per allunyar la imatge; o en les fletxes verdes per a mapes adjacents.


METAR-TAF: